Martroger III — FGA8276 — position and weather

sailwx.info

Track history (hours):
 
Tides and Currents Weather Stations Pressure Air Temp Water Temp Dewpoint Dewpoint Depression Visibility Wind Speed Wind Dir Waves Ship Positions

Martroger III

Last reported at 2017-Oct-03 08:12 UTC. Time now 2017-Nov-18 04:32 UTC.
Position N 46°36' W 002°00'.
Warning: this ship's position is 45 days out of date.

Length 17 m.

Type: Sailing vessel. MMSI: 227150390.

Date/timePositionNaut miles runAvg speedWind from/ knotsBaromVisibWave heightAir tempDewpointWater temp
2017-Oct-03 08:12N 46°36' W 002°00'2 6.0
2017-Oct-03 07:50N 46°35' W 001°58'2 6.2
2017-Oct-03 07:30N 46°33' W 001°56'4 5.9
2017-Oct-03 06:53N 46°31' W 001°53'2 4.5
2017-Oct-03 06:30N 46°29' W 001°51'2 4.7
2017-Oct-03 06:00N 46°29' W 001°48'1 1.4
2017-Oct-03 05:20N 46°30' W 001°48'0 0.0
2017-Oct-03 04:58N 46°30' W 001°48'0 0.0
2017-Oct-03 04:28N 46°30' W 001°48'0 0.0
2017-Oct-03 03:58N 46°30' W 001°48'0 0.0
2017-Oct-03 03:28N 46°30' W 001°48'0 0.0
2017-Oct-03 02:58N 46°30' W 001°48'0 0.0
2017-Oct-03 02:28N 46°30' W 001°48'0 0.0
2017-Oct-03 01:58N 46°30' W 001°48'0 0.0
2017-Oct-03 01:28N 46°30' W 001°48'0 0.0
2017-Oct-03 00:58N 46°30' W 001°48'0 0.0
2017-Oct-03 00:28N 46°30' W 001°48'0 0.0
2017-Oct-02 23:58N 46°30' W 001°48'0 0.0
2017-Oct-02 23:28N 46°30' W 001°48'0 0.0
2017-Oct-02 22:58N 46°30' W 001°48'0 0.0
2017-Oct-02 22:28N 46°30' W 001°48'0 0.0
2017-Oct-02 21:58N 46°30' W 001°48'0 0.0
2017-Oct-02 21:28N 46°30' W 001°48'0 0.0
2017-Oct-02 20:58N 46°30' W 001°48'0 0.0
2017-Oct-02 19:25N 46°30' W 001°48'0 0.0
2017-Oct-02 18:58N 46°30' W 001°48'0 0.0
2017-Oct-02 18:28N 46°30' W 001°48'0 0.0
2017-Oct-02 17:58N 46°30' W 001°48'0 0.0
2017-Oct-02 17:28N 46°30' W 001°48'0 0.0
2017-Oct-02 16:58N 46°30' W 001°48'0 0.0
2017-Oct-02 16:28N 46°30' W 001°48'0 0.0
2017-Oct-02 15:58N 46°30' W 001°48'0 0.0
2017-Oct-02 15:28N 46°30' W 001°48'0 0.0
2017-Oct-02 14:58N 46°30' W 001°48'0 0.0
2017-Oct-02 14:28N 46°30' W 001°48'1 1.8
2017-Oct-02 14:00N 46°29' W 001°47'2 4.4
2017-Oct-02 13:30N 46°27' W 001°45'2 4.0
2017-Oct-02 13:00N 46°26' W 001°44'3 4.5
2017-Oct-02 12:21N 46°24' W 001°40'21 4.4
2017-Oct-02 07:30N 46°11' W 001°15'3 5.2
2017-Oct-02 06:56N 46°09' W 001°14'2 4.7
2017-Oct-02 06:30N 46°09' W 001°11'1 0.4
2017-Oct-02 04:52N 46°09' W 001°10'0 0.0
2017-Oct-02 04:28N 46°09' W 001°10'0 0.0
2017-Oct-02 03:58N 46°09' W 001°10'0 0.0
2017-Oct-02 03:25N 46°09' W 001°10'0 0.0
2017-Oct-02 02:58N 46°09' W 001°10'0 0.0
2017-Oct-02 02:30N 46°09' W 001°10'0 0.0
2017-Oct-02 01:59N 46°09' W 001°10'0 0.0
2017-Oct-02 01:29N 46°09' W 001°10'0 0.0
2017-Oct-02 00:59N 46°09' W 001°10'0 0.0
2017-Oct-02 00:26N 46°09' W 001°10'0 0.0
2017-Oct-01 23:53N 46°09' W 001°10'0 0.0
2017-Oct-01 23:29N 46°09' W 001°10'0 0.0
2017-Oct-01 22:59N 46°09' W 001°10'0 0.0
2017-Oct-01 22:29N 46°09' W 001°10'0 0.0
2017-Oct-01 21:59N 46°09' W 001°10'0 0.0
2017-Oct-01 21:26N 46°09' W 001°10'0 0.0
2017-Oct-01 20:56N 46°09' W 001°10'0 0.0
2017-Oct-01 20:26N 46°09' W 001°10'0 0.0
2017-Oct-01 19:50N 46°09' W 001°10'0 0.0
2017-Oct-01 16:30N 46°09' W 001°10'0 0.1
2017-Oct-01 16:00N 46°09' W 001°10'1 2.1
2017-Oct-01 15:29N 46°08' W 001°12'1 2.7
2017-Oct-01 14:56N 46°07' W 001°12'2 2.9
2017-Oct-01 14:18N 46°05' W 001°12'0 1.1
2017-Oct-01 13:57N 46°05' W 001°13'2 3.6
2017-Oct-01 13:28N 46°07' W 001°12'1 3.1
2017-Oct-01 13:00N 46°08' W 001°11'1 2.0
2017-Oct-01 12:29N 46°09' W 001°10'0 0.0
2017-Sep-30 02:00N 46°09' W 001°10'0 0.0
2017-Sep-30 01:27N 46°09' W 001°10'0 0.0
2017-Sep-30 00:54N 46°09' W 001°10'0 0.0
2017-Sep-30 00:24N 46°09' W 001°10'0 0.0
2017-Sep-30 00:00N 46°09' W 001°10'0 0.0
2017-Sep-29 23:27N 46°09' W 001°10'0 0.0
2017-Sep-29 23:00N 46°09' W 001°10'0 0.0
2017-Sep-29 22:30N 46°09' W 001°10'0 0.0
2017-Sep-29 22:00N 46°09' W 001°10'0 0.0
2017-Sep-29 21:30N 46°09' W 001°10'0 0.0
2017-Sep-29 21:00N 46°09' W 001°10'0 0.0
2017-Sep-29 20:27N 46°09' W 001°10'0 0.0
2017-Sep-29 20:00N 46°09' W 001°10'0 0.0
2017-Sep-29 19:30N 46°09' W 001°10'0 0.0
2017-Sep-29 19:00N 46°09' W 001°10'0 0.0
2017-Sep-28 17:24N 46°09' W 001°10'0 0.0
2017-Sep-28 17:00N 46°09' W 001°10'0 0.0
2017-Sep-28 16:30N 46°09' W 001°10'0 0.0
2017-Sep-28 15:54N 46°09' W 001°10'0 0.0
2017-Sep-28 15:27N 46°09' W 001°10'0 0.0
2017-Sep-28 15:00N 46°09' W 001°10'0 0.0
2017-Sep-28 14:30N 46°09' W 001°10'0 0.0
2017-Sep-28 14:00N 46°09' W 001°10'0 0.0
2017-Sep-28 13:30N 46°09' W 001°10'0 0.0
2017-Sep-28 13:00N 46°09' W 001°10'0 0.0
2017-Sep-27 20:38N 46°09' W 001°10'0 0.1
2017-Sep-27 20:29N 46°09' W 001°10'0 0.0
2017-Sep-27 19:59N 46°09' W 001°10'0 0.0
2017-Sep-27 19:29N 46°09' W 001°10'0 0.0
2017-Sep-27 18:59N 46°09' W 001°10'0 0.0
2017-Sep-27 18:29N 46°09' W 001°10'0 0.0
2017-Sep-27 17:59N 46°09' W 001°10'0 0.0
2017-Sep-27 17:29N 46°09' W 001°10'0 0.0
2017-Sep-27 16:59N 46°09' W 001°10'0 0.0
2017-Sep-27 16:29N 46°09' W 001°10'0 0.0
2017-Sep-27 15:59N 46°09' W 001°10'0 0.0
2017-Sep-27 15:29N 46°09' W 001°10'0 0.0
2017-Sep-27 14:59N 46°09' W 001°10'0 0.0
2017-Sep-27 14:29N 46°09' W 001°10'0 0.0
2017-Sep-27 13:56N 46°09' W 001°10'0 0.0
2017-Sep-27 13:29N 46°09' W 001°10'0 0.0
2017-Sep-27 12:56N 46°09' W 001°10'0 0.0
2017-Sep-27 12:29N 46°09' W 001°10'0 0.0
2017-Sep-26 20:24N 46°09' W 001°10'0 0.0
2017-Sep-26 20:00N 46°09' W 001°10'0 0.0
2017-Sep-26 19:27N 46°09' W 001°10'0 0.0
2017-Sep-26 19:00N 46°09' W 001°10'0 0.0
2017-Sep-26 18:30N 46°09' W 001°10'0 0.0
2017-Sep-26 17:57N 46°09' W 001°10'0 0.0
2017-Sep-26 17:30N 46°09' W 001°10'0 0.0
2017-Sep-26 17:00N 46°09' W 001°10'0 0.0
2017-Sep-26 16:30N 46°09' W 001°10'0 0.0
2017-Sep-26 16:00N 46°09' W 001°10'0 0.2
2017-Sep-26 15:30N 46°09' W 001°10'0 0.2
2017-Sep-26 15:00N 46°09' W 001°10'2 3.1
2017-Sep-26 14:30N 46°09' W 001°12'2 4.5
2017-Sep-26 14:00N 46°10' W 001°15'20 4.8
2017-Sep-26 09:44N 46°23' W 001°38'2 4.8
2017-Sep-26 09:16N 46°24' W 001°40'1 4.7
2017-Sep-26 09:00N 46°25' W 001°41'2 4.7
2017-Sep-26 08:30N 46°27' W 001°44'3 5.4
2017-Sep-26 08:00N 46°29' W 001°46'2 0.1
2017-Sep-25 19:14N 46°30' W 001°48'0 0.0
2017-Sep-25 18:59N 46°30' W 001°48'0 0.0
2017-Sep-25 18:26N 46°30' W 001°48'0 0.0
2017-Sep-25 17:59N 46°30' W 001°48'0 0.0
2017-Sep-25 17:29N 46°30' W 001°48'0 0.0
2017-Sep-25 16:59N 46°30' W 001°48'0 0.0
2017-Sep-25 16:25N 46°30' W 001°48'0 0.0
2017-Sep-25 15:58N 46°30' W 001°48'0 0.0
2017-Sep-25 15:28N 46°30' W 001°48'1 1.7
2017-Sep-25 15:00N 46°29' W 001°47'2 4.1
2017-Sep-25 14:31N 46°29' W 001°50'3 5.3
2017-Sep-25 14:00N 46°31' W 001°53'3 6.5
2017-Sep-25 13:28N 46°33' W 001°56'  
Track history (hours):
 
Tides and Currents Weather Stations Pressure Air Temp Water Temp Dewpoint Dewpoint Depression Visibility Wind Speed Wind Dir Waves Ship Positions

Martroger III

Last reported at 2017-Oct-03 08:12 UTC. Time now 2017-Nov-18 04:32 UTC.
Position N 46°36' W 002°00'.
Warning: this ship's position is 45 days out of date.

Length 17 m.

Type: Sailing vessel. MMSI: 227150390.

Date/timePositionNaut miles runAvg speedWind from/ knotsBaromVisibWave heightAir tempDewpointWater temp
2017-Oct-03 08:12N 46°36' W 002°00'2 6.0
2017-Oct-03 07:50N 46°35' W 001°58'2 6.2
2017-Oct-03 07:30N 46°33' W 001°56'4 5.9
2017-Oct-03 06:53N 46°31' W 001°53'2 4.5
2017-Oct-03 06:30N 46°29' W 001°51'2 4.7
2017-Oct-03 06:00N 46°29' W 001°48'1 1.4
2017-Oct-03 05:20N 46°30' W 001°48'0 0.0
2017-Oct-03 04:58N 46°30' W 001°48'0 0.0
2017-Oct-03 04:28N 46°30' W 001°48'0 0.0
2017-Oct-03 03:58N 46°30' W 001°48'0 0.0
2017-Oct-03 03:28N 46°30' W 001°48'0 0.0
2017-Oct-03 02:58N 46°30' W 001°48'0 0.0
2017-Oct-03 02:28N 46°30' W 001°48'0 0.0
2017-Oct-03 01:58N 46°30' W 001°48'0 0.0
2017-Oct-03 01:28N 46°30' W 001°48'0 0.0
2017-Oct-03 00:58N 46°30' W 001°48'0 0.0
2017-Oct-03 00:28N 46°30' W 001°48'0 0.0
2017-Oct-02 23:58N 46°30' W 001°48'0 0.0
2017-Oct-02 23:28N 46°30' W 001°48'0 0.0
2017-Oct-02 22:58N 46°30' W 001°48'0 0.0
2017-Oct-02 22:28N 46°30' W 001°48'0 0.0
2017-Oct-02 21:58N 46°30' W 001°48'0 0.0
2017-Oct-02 21:28N 46°30' W 001°48'0 0.0
2017-Oct-02 20:58N 46°30' W 001°48'0 0.0
2017-Oct-02 19:25N 46°30' W 001°48'0 0.0
2017-Oct-02 18:58N 46°30' W 001°48'0 0.0
2017-Oct-02 18:28N 46°30' W 001°48'0 0.0
2017-Oct-02 17:58N 46°30' W 001°48'0 0.0
2017-Oct-02 17:28N 46°30' W 001°48'0 0.0
2017-Oct-02 16:58N 46°30' W 001°48'0 0.0
2017-Oct-02 16:28N 46°30' W 001°48'0 0.0
2017-Oct-02 15:58N 46°30' W 001°48'0 0.0
2017-Oct-02 15:28N 46°30' W 001°48'0 0.0
2017-Oct-02 14:58N 46°30' W 001°48'0 0.0
2017-Oct-02 14:28N 46°30' W 001°48'1 1.8
2017-Oct-02 14:00N 46°29' W 001°47'2 4.4
2017-Oct-02 13:30N 46°27' W 001°45'2 4.0
2017-Oct-02 13:00N 46°26' W 001°44'3 4.5
2017-Oct-02 12:21N 46°24' W 001°40'21 4.4
2017-Oct-02 07:30N 46°11' W 001°15'3 5.2
2017-Oct-02 06:56N 46°09' W 001°14'2 4.7
2017-Oct-02 06:30N 46°09' W 001°11'1 0.4
2017-Oct-02 04:52N 46°09' W 001°10'0 0.0
2017-Oct-02 04:28N 46°09' W 001°10'0 0.0
2017-Oct-02 03:58N 46°09' W 001°10'0 0.0
2017-Oct-02 03:25N 46°09' W 001°10'0 0.0
2017-Oct-02 02:58N 46°09' W 001°10'0 0.0
2017-Oct-02 02:30N 46°09' W 001°10'0 0.0
2017-Oct-02 01:59N 46°09' W 001°10'0 0.0
2017-Oct-02 01:29N 46°09' W 001°10'0 0.0
2017-Oct-02 00:59N 46°09' W 001°10'0 0.0
2017-Oct-02 00:26N 46°09' W 001°10'0 0.0
2017-Oct-01 23:53N 46°09' W 001°10'0 0.0
2017-Oct-01 23:29N 46°09' W 001°10'0 0.0
2017-Oct-01 22:59N 46°09' W 001°10'0 0.0
2017-Oct-01 22:29N 46°09' W 001°10'0 0.0
2017-Oct-01 21:59N 46°09' W 001°10'0 0.0
2017-Oct-01 21:26N 46°09' W 001°10'0 0.0
2017-Oct-01 20:56N 46°09' W 001°10'0 0.0
2017-Oct-01 20:26N 46°09' W 001°10'0 0.0
2017-Oct-01 19:50N 46°09' W 001°10'0 0.0
2017-Oct-01 16:30N 46°09' W 001°10'0 0.1
2017-Oct-01 16:00N 46°09' W 001°10'1 2.1
2017-Oct-01 15:29N 46°08' W 001°12'1 2.7
2017-Oct-01 14:56N 46°07' W 001°12'2 2.9
2017-Oct-01 14:18N 46°05' W 001°12'0 1.1
2017-Oct-01 13:57N 46°05' W 001°13'2 3.6
2017-Oct-01 13:28N 46°07' W 001°12'1 3.1
2017-Oct-01 13:00N 46°08' W 001°11'1 2.0
2017-Oct-01 12:29N 46°09' W 001°10'0 0.0
2017-Sep-30 02:00N 46°09' W 001°10'0 0.0
2017-Sep-30 01:27N 46°09' W 001°10'0 0.0
2017-Sep-30 00:54N 46°09' W 001°10'0 0.0
2017-Sep-30 00:24N 46°09' W 001°10'0 0.0
2017-Sep-30 00:00N 46°09' W 001°10'0 0.0
2017-Sep-29 23:27N 46°09' W 001°10'0 0.0
2017-Sep-29 23:00N 46°09' W 001°10'0 0.0
2017-Sep-29 22:30N 46°09' W 001°10'0 0.0
2017-Sep-29 22:00N 46°09' W 001°10'0 0.0
2017-Sep-29 21:30N 46°09' W 001°10'0 0.0
2017-Sep-29 21:00N 46°09' W 001°10'0 0.0
2017-Sep-29 20:27N 46°09' W 001°10'0 0.0
2017-Sep-29 20:00N 46°09' W 001°10'0 0.0
2017-Sep-29 19:30N 46°09' W 001°10'0 0.0
2017-Sep-29 19:00N 46°09' W 001°10'0 0.0
2017-Sep-28 17:24N 46°09' W 001°10'0 0.0
2017-Sep-28 17:00N 46°09' W 001°10'0 0.0
2017-Sep-28 16:30N 46°09' W 001°10'0 0.0
2017-Sep-28 15:54N 46°09' W 001°10'0 0.0
2017-Sep-28 15:27N 46°09' W 001°10'0 0.0
2017-Sep-28 15:00N 46°09' W 001°10'0 0.0
2017-Sep-28 14:30N 46°09' W 001°10'0 0.0
2017-Sep-28 14:00N 46°09' W 001°10'0 0.0
2017-Sep-28 13:30N 46°09' W 001°10'0 0.0
2017-Sep-28 13:00N 46°09' W 001°10'0 0.0
2017-Sep-27 20:38N 46°09' W 001°10'0 0.1
2017-Sep-27 20:29N 46°09' W 001°10'0 0.0
2017-Sep-27 19:59N 46°09' W 001°10'0 0.0
2017-Sep-27 19:29N 46°09' W 001°10'0 0.0
2017-Sep-27 18:59N 46°09' W 001°10'0 0.0
2017-Sep-27 18:29N 46°09' W 001°10'0 0.0
2017-Sep-27 17:59N 46°09' W 001°10'0 0.0
2017-Sep-27 17:29N 46°09' W 001°10'0 0.0
2017-Sep-27 16:59N 46°09' W 001°10'0 0.0
2017-Sep-27 16:29N 46°09' W 001°10'0 0.0
2017-Sep-27 15:59N 46°09' W 001°10'0 0.0
2017-Sep-27 15:29N 46°09' W 001°10'0 0.0
2017-Sep-27 14:59N 46°09' W 001°10'0 0.0
2017-Sep-27 14:29N 46°09' W 001°10'0 0.0
2017-Sep-27 13:56N 46°09' W 001°10'0 0.0
2017-Sep-27 13:29N 46°09' W 001°10'0 0.0
2017-Sep-27 12:56N 46°09' W 001°10'0 0.0
2017-Sep-27 12:29N 46°09' W 001°10'0 0.0
2017-Sep-26 20:24N 46°09' W 001°10'0 0.0
2017-Sep-26 20:00N 46°09' W 001°10'0 0.0
2017-Sep-26 19:27N 46°09' W 001°10'0 0.0
2017-Sep-26 19:00N 46°09' W 001°10'0 0.0
2017-Sep-26 18:30N 46°09' W 001°10'0 0.0
2017-Sep-26 17:57N 46°09' W 001°10'0 0.0
2017-Sep-26 17:30N 46°09' W 001°10'0 0.0
2017-Sep-26 17:00N 46°09' W 001°10'0 0.0
2017-Sep-26 16:30N 46°09' W 001°10'0 0.0
2017-Sep-26 16:00N 46°09' W 001°10'0 0.2
2017-Sep-26 15:30N 46°09' W 001°10'0 0.2
2017-Sep-26 15:00N 46°09' W 001°10'2 3.1
2017-Sep-26 14:30N 46°09' W 001°12'2 4.5
2017-Sep-26 14:00N 46°10' W 001°15'20 4.8
2017-Sep-26 09:44N 46°23' W 001°38'2 4.8
2017-Sep-26 09:16N 46°24' W 001°40'1 4.7
2017-Sep-26 09:00N 46°25' W 001°41'2 4.7
2017-Sep-26 08:30N 46°27' W 001°44'3 5.4
2017-Sep-26 08:00N 46°29' W 001°46'2 0.1
2017-Sep-25 19:14N 46°30' W 001°48'0 0.0
2017-Sep-25 18:59N 46°30' W 001°48'0 0.0
2017-Sep-25 18:26N 46°30' W 001°48'0 0.0
2017-Sep-25 17:59N 46°30' W 001°48'0 0.0
2017-Sep-25 17:29N 46°30' W 001°48'0 0.0
2017-Sep-25 16:59N 46°30' W 001°48'0 0.0
2017-Sep-25 16:25N 46°30' W 001°48'0 0.0
2017-Sep-25 15:58N 46°30' W 001°48'0 0.0
2017-Sep-25 15:28N 46°30' W 001°48'1 1.7
2017-Sep-25 15:00N 46°29' W 001°47'2 4.1
2017-Sep-25 14:31N 46°29' W 001°50'3 5.3
2017-Sep-25 14:00N 46°31' W 001°53'3 6.5
2017-Sep-25 13:28N 46°33' W 001°56'  

Dump ship's entire track history